sensor_id;sensor_type;location;lat;lon;timestamp;temperature;humidity
35700;DHT22;21818;51.078;12.108;2022-11-15T00:01:35;13.20;80.00
35700;DHT22;21818;51.078;12.108;2022-11-15T00:04:03;13.20;79.90
35700;DHT22;21818;51.078;12.108;2022-11-15T00:06:28;13.20;80.10
35700;DHT22;21818;51.078;12.108;2022-11-15T00:08:54;13.10;80.00
35700;DHT22;21818;51.078;12.108;2022-11-15T00:11:20;13.10;80.10
35700;DHT22;21818;51.078;12.108;2022-11-15T00:13:45;13.10;80.10
35700;DHT22;21818;51.078;12.108;2022-11-15T00:16:11;13.00;80.40
35700;DHT22;21818;51.078;12.108;2022-11-15T00:18:37;13.10;80.40
35700;DHT22;21818;51.078;12.108;2022-11-15T00:21:08;13.00;80.40
35700;DHT22;21818;51.078;12.108;2022-11-15T00:23:34;13.10;80.40
35700;DHT22;21818;51.078;12.108;2022-11-15T00:26:00;13.10;80.50
35700;DHT22;21818;51.078;12.108;2022-11-15T00:28:26;13.10;80.30
35700;DHT22;21818;51.078;12.108;2022-11-15T00:30:52;13.10;80.40
35700;DHT22;21818;51.078;12.108;2022-11-15T00:33:18;13.10;80.40
35700;DHT22;21818;51.078;12.108;2022-11-15T00:35:43;13.20;80.30
35700;DHT22;21818;51.078;12.108;2022-11-15T00:38:09;13.20;80.30
35700;DHT22;21818;51.078;12.108;2022-11-15T00:40:35;13.30;80.20
35700;DHT22;21818;51.078;12.108;2022-11-15T00:43:00;13.30;80.10
35700;DHT22;21818;51.078;12.108;2022-11-15T00:45:26;13.40;80.10
35700;DHT22;21818;51.078;12.108;2022-11-15T00:47:52;13.40;80.60
35700;DHT22;21818;51.078;12.108;2022-11-15T00:50:18;13.40;80.00
35700;DHT22;21818;51.078;12.108;2022-11-15T00:52:44;13.40;79.90
35700;DHT22;21818;51.078;12.108;2022-11-15T00:55:14;13.40;80.10
35700;DHT22;21818;51.078;12.108;2022-11-15T00:57:40;13.40;80.20
35700;DHT22;21818;51.078;12.108;2022-11-15T01:00:06;13.30;80.20
35700;DHT22;21818;51.078;12.108;2022-11-15T01:02:32;13.30;80.20
35700;DHT22;21818;51.078;12.108;2022-11-15T01:04:58;13.40;80.40
35700;DHT22;21818;51.078;12.108;2022-11-15T01:07:23;13.40;80.10
35700;DHT22;21818;51.078;12.108;2022-11-15T01:09:49;13.30;80.20
35700;DHT22;21818;51.078;12.108;2022-11-15T01:12:15;13.30;80.50
35700;DHT22;21818;51.078;12.108;2022-11-15T01:14:40;13.20;80.70
35700;DHT22;21818;51.078;12.108;2022-11-15T01:17:06;13.20;80.60
35700;DHT22;21818;51.078;12.108;2022-11-15T01:19:31;13.20;80.70
35700;DHT22;21818;51.078;12.108;2022-11-15T01:21:57;13.10;80.60
35700;DHT22;21818;51.078;12.108;2022-11-15T01:24:23;13.10;80.80
35700;DHT22;21818;51.078;12.108;2022-11-15T01:26:48;13.10;80.90
35700;DHT22;21818;51.078;12.108;2022-11-15T01:29:14;13.00;80.90
35700;DHT22;21818;51.078;12.108;2022-11-15T01:31:39;13.00;81.00
35700;DHT22;21818;51.078;12.108;2022-11-15T01:34:05;13.00;81.10
35700;DHT22;21818;51.078;12.108;2022-11-15T01:36:31;13.00;81.10
35700;DHT22;21818;51.078;12.108;2022-11-15T01:38:57;13.00;81.00
35700;DHT22;21818;51.078;12.108;2022-11-15T01:41:28;13.10;81.10
35700;DHT22;21818;51.078;12.108;2022-11-15T01:46:59;13.00;81.30
35700;DHT22;21818;51.078;12.108;2022-11-15T01:49:27;13.00;81.10
35700;DHT22;21818;51.078;12.108;2022-11-15T01:51:55;13.00;81.10
35700;DHT22;21818;51.078;12.108;2022-11-15T01:54:23;13.00;81.30
35700;DHT22;21818;51.078;12.108;2022-11-15T01:56:55;12.90;81.40
35700;DHT22;21818;51.078;12.108;2022-11-15T01:59:23;12.80;81.40
35700;DHT22;21818;51.078;12.108;2022-11-15T02:01:48;12.90;81.50
35700;DHT22;21818;51.078;12.108;2022-11-15T02:04:34;12.90;81.50
35700;DHT22;21818;51.078;12.108;2022-11-15T02:07:03;12.80;81.70
35700;DHT22;21818;51.078;12.108;2022-11-15T02:09:30;12.70;81.80
35700;DHT22;21818;51.078;12.108;2022-11-15T02:11:56;12.70;81.90
35700;DHT22;21818;51.078;12.108;2022-11-15T02:14:22;12.70;82.00
35700;DHT22;21818;51.078;12.108;2022-11-15T02:22:35;12.60;82.20
35700;DHT22;21818;51.078;12.108;2022-11-15T02:30:43;12.70;82.20
35700;DHT22;21818;51.078;12.108;2022-11-15T02:36:01;12.90;82.00
35700;DHT22;21818;51.078;12.108;2022-11-15T02:41:10;13.00;81.60
35700;DHT22;21818;51.078;12.108;2022-11-15T02:44:03;13.00;81.60
35700;DHT22;21818;51.078;12.108;2022-11-15T02:46:35;13.00;81.70
35700;DHT22;21818;51.078;12.108;2022-11-15T02:49:19;13.00;81.70
35700;DHT22;21818;51.078;12.108;2022-11-15T02:51:48;13.10;81.50
35700;DHT22;21818;51.078;12.108;2022-11-15T02:54:20;13.20;81.40
35700;DHT22;21818;51.078;12.108;2022-11-15T02:56:47;13.20;81.50
35700;DHT22;21818;51.078;12.108;2022-11-15T03:04:57;13.30;81.20
35700;DHT22;21818;51.078;12.108;2022-11-15T03:07:31;13.40;81.10
35700;DHT22;21818;51.078;12.108;2022-11-15T03:10:18;13.40;80.90
35700;DHT22;21818;51.078;12.108;2022-11-15T03:12:55;13.40;80.90
35700;DHT22;21818;51.078;12.108;2022-11-15T03:15:37;13.40;80.90
35700;DHT22;21818;51.078;12.108;2022-11-15T03:18:16;13.50;80.90
35700;DHT22;21818;51.078;12.108;2022-11-15T03:20:43;13.60;80.90
35700;DHT22;21818;51.078;12.108;2022-11-15T03:23:11;13.50;80.70
35700;DHT22;21818;51.078;12.108;2022-11-15T03:25:41;13.50;81.30
35700;DHT22;21818;51.078;12.108;2022-11-15T03:28:11;13.50;81.00
35700;DHT22;21818;51.078;12.108;2022-11-15T03:30:39;13.60;81.00
35700;DHT22;21818;51.078;12.108;2022-11-15T03:33:05;13.60;81.10
35700;DHT22;21818;51.078;12.108;2022-11-15T03:35:37;13.60;81.50
35700;DHT22;21818;51.078;12.108;2022-11-15T03:38:23;13.60;81.00
35700;DHT22;21818;51.078;12.108;2022-11-15T03:40:58;13.60;81.00
35700;DHT22;21818;51.078;12.108;2022-11-15T03:43:32;13.60;81.10
35700;DHT22;21818;51.078;12.108;2022-11-15T03:46:12;13.50;81.10
35700;DHT22;21818;51.078;12.108;2022-11-15T03:49:04;13.50;81.10
35700;DHT22;21818;51.078;12.108;2022-11-15T03:51:31;13.50;81.10
35700;DHT22;21818;51.078;12.108;2022-11-15T03:53:56;13.40;81.10
35700;DHT22;21818;51.078;12.108;2022-11-15T03:56:22;13.40;81.20
35700;DHT22;21818;51.078;12.108;2022-11-15T03:58:48;13.40;81.20
35700;DHT22;21818;51.078;12.108;2022-11-15T04:01:13;13.40;81.20
35700;DHT22;21818;51.078;12.108;2022-11-15T04:03:39;13.40;81.30
35700;DHT22;21818;51.078;12.108;2022-11-15T04:06:05;13.40;81.30
35700;DHT22;21818;51.078;12.108;2022-11-15T04:08:30;13.50;81.20
35700;DHT22;21818;51.078;12.108;2022-11-15T04:10:56;13.50;81.30
35700;DHT22;21818;51.078;12.108;2022-11-15T04:13:21;13.50;81.50
35700;DHT22;21818;51.078;12.108;2022-11-15T04:15:47;13.40;81.50
35700;DHT22;21818;51.078;12.108;2022-11-15T04:18:12;13.30;81.60
35700;DHT22;21818;51.078;12.108;2022-11-15T04:20:38;13.30;81.80
35700;DHT22;21818;51.078;12.108;2022-11-15T04:23:23;13.40;81.90
35700;DHT22;21818;51.078;12.108;2022-11-15T04:26:17;13.40;81.90
35700;DHT22;21818;51.078;12.108;2022-11-15T04:28:43;13.50;81.80
35700;DHT22;21818;51.078;12.108;2022-11-15T04:31:28;13.40;81.70
35700;DHT22;21818;51.078;12.108;2022-11-15T04:33:53;13.50;81.60
35700;DHT22;21818;51.078;12.108;2022-11-15T04:36:20;13.50;81.60
35700;DHT22;21818;51.078;12.108;2022-11-15T04:39:04;13.40;81.50
35700;DHT22;21818;51.078;12.108;2022-11-15T04:41:30;13.30;81.80
35700;DHT22;21818;51.078;12.108;2022-11-15T04:43:55;13.20;81.90
35700;DHT22;21818;51.078;12.108;2022-11-15T04:46:22;13.20;82.10
35700;DHT22;21818;51.078;12.108;2022-11-15T04:48:47;13.10;82.10
35700;DHT22;21818;51.078;12.108;2022-11-15T04:51:13;13.00;82.20
35700;DHT22;21818;51.078;12.108;2022-11-15T04:53:39;13.00;82.30
35700;DHT22;21818;51.078;12.108;2022-11-15T04:56:04;13.00;82.30
35700;DHT22;21818;51.078;12.108;2022-11-15T04:58:30;13.00;82.40
35700;DHT22;21818;51.078;12.108;2022-11-15T05:00:56;13.10;82.30
35700;DHT22;21818;51.078;12.108;2022-11-15T05:03:21;13.10;82.20
35700;DHT22;21818;51.078;12.108;2022-11-15T05:06:05;13.00;82.30
35700;DHT22;21818;51.078;12.108;2022-11-15T05:08:32;12.90;82.40
35700;DHT22;21818;51.078;12.108;2022-11-15T05:10:58;12.90;82.40
35700;DHT22;21818;51.078;12.108;2022-11-15T05:13:23;12.80;83.00
35700;DHT22;21818;51.078;12.108;2022-11-15T05:15:49;12.80;82.60
35700;DHT22;21818;51.078;12.108;2022-11-15T05:18:14;12.80;82.60
35700;DHT22;21818;51.078;12.108;2022-11-15T05:20:40;12.80;82.70
35700;DHT22;21818;51.078;12.108;2022-11-15T05:23:06;12.70;82.60
35700;DHT22;21818;51.078;12.108;2022-11-15T05:25:32;12.70;82.70
35700;DHT22;21818;51.078;12.108;2022-11-15T05:27:57;12.70;82.60
35700;DHT22;21818;51.078;12.108;2022-11-15T05:30:23;12.70;83.10
35700;DHT22;21818;51.078;12.108;2022-11-15T05:32:49;12.60;82.70
35700;DHT22;21818;51.078;12.108;2022-11-15T05:35:22;12.60;83.40
35700;DHT22;21818;51.078;12.108;2022-11-15T05:37:52;12.50;83.60
35700;DHT22;21818;51.078;12.108;2022-11-15T05:40:18;12.50;83.10
35700;DHT22;21818;51.078;12.108;2022-11-15T05:42:44;12.50;83.20
35700;DHT22;21818;51.078;12.108;2022-11-15T05:45:11;12.50;83.30
35700;DHT22;21818;51.078;12.108;2022-11-15T05:47:37;12.60;83.30
35700;DHT22;21818;51.078;12.108;2022-11-15T05:50:04;12.60;83.20
35700;DHT22;21818;51.078;12.108;2022-11-15T05:52:33;12.60;83.30
35700;DHT22;21818;51.078;12.108;2022-11-15T05:54:59;12.60;83.40
35700;DHT22;21818;51.078;12.108;2022-11-15T05:57:25;12.60;83.40
35700;DHT22;21818;51.078;12.108;2022-11-15T05:59:51;12.60;83.50
35700;DHT22;21818;51.078;12.108;2022-11-15T06:02:17;12.60;83.50
35700;DHT22;21818;51.078;12.108;2022-11-15T06:04:42;12.70;83.20
35700;DHT22;21818;51.078;12.108;2022-11-15T06:07:08;12.70;83.40
35700;DHT22;21818;51.078;12.108;2022-11-15T06:09:33;12.70;83.30
35700;DHT22;21818;51.078;12.108;2022-11-15T06:11:59;12.60;83.20
35700;DHT22;21818;51.078;12.108;2022-11-15T06:14:24;12.60;83.30
35700;DHT22;21818;51.078;12.108;2022-11-15T06:16:50;12.70;83.30
35700;DHT22;21818;51.078;12.108;2022-11-15T06:19:16;12.70;83.10
35700;DHT22;21818;51.078;12.108;2022-11-15T06:21:42;12.80;82.90
35700;DHT22;21818;51.078;12.108;2022-11-15T06:24:07;12.80;82.90
35700;DHT22;21818;51.078;12.108;2022-11-15T06:26:33;12.90;82.60
35700;DHT22;21818;51.078;12.108;2022-11-15T06:28:59;13.00;83.10
35700;DHT22;21818;51.078;12.108;2022-11-15T06:31:24;13.00;82.50
35700;DHT22;21818;51.078;12.108;2022-11-15T06:33:50;12.90;82.40
35700;DHT22;21818;51.078;12.108;2022-11-15T06:36:16;12.90;82.50
35700;DHT22;21818;51.078;12.108;2022-11-15T06:38:43;12.80;82.50
35700;DHT22;21818;51.078;12.108;2022-11-15T06:41:10;12.80;82.70
35700;DHT22;21818;51.078;12.108;2022-11-15T06:43:36;12.80;82.70
35700;DHT22;21818;51.078;12.108;2022-11-15T06:46:04;12.90;82.50
35700;DHT22;21818;51.078;12.108;2022-11-15T06:48:32;12.90;82.40
35700;DHT22;21818;51.078;12.108;2022-11-15T06:51:00;12.90;82.50
35700;DHT22;21818;51.078;12.108;2022-11-15T06:53:26;12.90;82.40
35700;DHT22;21818;51.078;12.108;2022-11-15T06:55:51;13.00;82.10
35700;DHT22;21818;51.078;12.108;2022-11-15T06:58:17;13.00;82.00
35700;DHT22;21818;51.078;12.108;2022-11-15T07:00:43;13.00;81.90
35700;DHT22;21818;51.078;12.108;2022-11-15T07:03:09;13.00;82.00
35700;DHT22;21818;51.078;12.108;2022-11-15T07:05:35;13.00;82.00
35700;DHT22;21818;51.078;12.108;2022-11-15T07:08:02;13.00;82.00
35700;DHT22;21818;51.078;12.108;2022-11-15T07:10:28;13.00;81.80
35700;DHT22;21818;51.078;12.108;2022-11-15T07:12:55;13.00;81.70
35700;DHT22;21818;51.078;12.108;2022-11-15T07:15:23;13.00;81.70
35700;DHT22;21818;51.078;12.108;2022-11-15T07:17:49;13.00;81.70
35700;DHT22;21818;51.078;12.108;2022-11-15T07:20:15;13.00;81.50
35700;DHT22;21818;51.078;12.108;2022-11-15T07:22:41;13.10;81.40
35700;DHT22;21818;51.078;12.108;2022-11-15T07:25:08;13.20;81.10
35700;DHT22;21818;51.078;12.108;2022-11-15T07:27:34;13.20;80.80
35700;DHT22;21818;51.078;12.108;2022-11-15T07:30:00;13.30;80.60
35700;DHT22;21818;51.078;12.108;2022-11-15T07:32:25;13.40;80.90
35700;DHT22;21818;51.078;12.108;2022-11-15T07:34:51;13.40;80.20
35700;DHT22;21818;51.078;12.108;2022-11-15T07:37:17;13.40;80.20
35700;DHT22;21818;51.078;12.108;2022-11-15T07:39:43;13.40;80.00
35700;DHT22;21818;51.078;12.108;2022-11-15T07:42:08;13.40;79.90
35700;DHT22;21818;51.078;12.108;2022-11-15T07:44:52;13.50;79.80
35700;DHT22;21818;51.078;12.108;2022-11-15T07:47:18;13.50;79.70
35700;DHT22;21818;51.078;12.108;2022-11-15T07:49:44;13.50;79.60
35700;DHT22;21818;51.078;12.108;2022-11-15T07:52:11;13.50;79.50
35700;DHT22;21818;51.078;12.108;2022-11-15T07:54:37;13.50;79.40
35700;DHT22;21818;51.078;12.108;2022-11-15T07:57:03;13.50;79.60
35700;DHT22;21818;51.078;12.108;2022-11-15T07:59:28;13.50;79.60
35700;DHT22;21818;51.078;12.108;2022-11-15T08:01:54;13.60;79.60
35700;DHT22;21818;51.078;12.108;2022-11-15T08:04:19;13.60;79.50
35700;DHT22;21818;51.078;12.108;2022-11-15T08:06:45;13.60;79.50
35700;DHT22;21818;51.078;12.108;2022-11-15T08:09:11;13.50;79.40
35700;DHT22;21818;51.078;12.108;2022-11-15T08:11:37;13.60;79.40
35700;DHT22;21818;51.078;12.108;2022-11-15T08:14:02;13.60;79.30
35700;DHT22;21818;51.078;12.108;2022-11-15T08:16:28;13.60;79.30
35700;DHT22;21818;51.078;12.108;2022-11-15T08:18:54;13.50;79.30
35700;DHT22;21818;51.078;12.108;2022-11-15T08:21:20;13.50;79.30
35700;DHT22;21818;51.078;12.108;2022-11-15T08:23:46;13.50;79.20
35700;DHT22;21818;51.078;12.108;2022-11-15T08:26:12;13.60;79.20
35700;DHT22;21818;51.078;12.108;2022-11-15T08:28:38;13.60;79.10
35700;DHT22;21818;51.078;12.108;2022-11-15T08:31:04;13.60;79.00
35700;DHT22;21818;51.078;12.108;2022-11-15T08:33:31;13.60;78.90
35700;DHT22;21818;51.078;12.108;2022-11-15T08:35:59;13.70;78.80
35700;DHT22;21818;51.078;12.108;2022-11-15T08:38:25;13.70;78.70
35700;DHT22;21818;51.078;12.108;2022-11-15T08:40:52;13.80;78.60
35700;DHT22;21818;51.078;12.108;2022-11-15T08:43:18;13.80;78.40
35700;DHT22;21818;51.078;12.108;2022-11-15T08:45:44;13.80;78.40
35700;DHT22;21818;51.078;12.108;2022-11-15T08:48:10;13.80;78.30
35700;DHT22;21818;51.078;12.108;2022-11-15T08:50:36;13.90;78.30
35700;DHT22;21818;51.078;12.108;2022-11-15T08:53:08;13.90;78.10
35700;DHT22;21818;51.078;12.108;2022-11-15T08:55:38;13.90;78.00
35700;DHT22;21818;51.078;12.108;2022-11-15T08:58:04;13.90;78.60
35700;DHT22;21818;51.078;12.108;2022-11-15T09:00:30;13.90;78.00
35700;DHT22;21818;51.078;12.108;2022-11-15T09:02:55;14.00;78.00
35700;DHT22;21818;51.078;12.108;2022-11-15T09:05:21;14.00;78.00
35700;DHT22;21818;51.078;12.108;2022-11-15T09:07:46;14.00;77.80
35700;DHT22;21818;51.078;12.108;2022-11-15T09:10:12;14.00;77.70
35700;DHT22;21818;51.078;12.108;2022-11-15T09:12:37;14.00;77.60
35700;DHT22;21818;51.078;12.108;2022-11-15T09:15:04;14.00;77.60
35700;DHT22;21818;51.078;12.108;2022-11-15T09:17:30;14.10;77.70
35700;DHT22;21818;51.078;12.108;2022-11-15T09:19:56;14.10;77.50
35700;DHT22;21818;51.078;12.108;2022-11-15T09:22:22;14.10;77.40
35700;DHT22;21818;51.078;12.108;2022-11-15T09:24:47;14.20;77.40
35700;DHT22;21818;51.078;12.108;2022-11-15T09:27:13;14.10;77.20
35700;DHT22;21818;51.078;12.108;2022-11-15T09:29:39;14.20;77.30
35700;DHT22;21818;51.078;12.108;2022-11-15T09:32:04;14.20;77.30
35700;DHT22;21818;51.078;12.108;2022-11-15T09:34:30;14.20;77.10
35700;DHT22;21818;51.078;12.108;2022-11-15T09:36:56;14.20;77.00
35700;DHT22;21818;51.078;12.108;2022-11-15T09:39:21;14.30;77.00
35700;DHT22;21818;51.078;12.108;2022-11-15T09:47:41;14.30;77.00
35700;DHT22;21818;51.078;12.108;2022-11-15T09:50:15;14.30;76.80
35700;DHT22;21818;51.078;12.108;2022-11-15T09:52:44;14.40;76.90
35700;DHT22;21818;51.078;12.108;2022-11-15T09:55:11;14.40;76.80
35700;DHT22;21818;51.078;12.108;2022-11-15T09:57:57;14.40;76.70
35700;DHT22;21818;51.078;12.108;2022-11-15T10:00:39;14.40;76.70
35700;DHT22;21818;51.078;12.108;2022-11-15T10:03:18;14.40;76.60
35700;DHT22;21818;51.078;12.108;2022-11-15T10:05:47;14.40;76.60
35700;DHT22;21818;51.078;12.108;2022-11-15T10:08:28;14.50;76.60
35700;DHT22;21818;51.078;12.108;2022-11-15T10:10:58;14.50;76.50
35700;DHT22;21818;51.078;12.108;2022-11-15T10:13:31;14.50;76.50
35700;DHT22;21818;51.078;12.108;2022-11-15T10:24:13;14.60;76.30
35700;DHT22;21818;51.078;12.108;2022-11-15T10:26:47;14.70;76.20
35700;DHT22;21818;51.078;12.108;2022-11-15T10:29:21;14.70;76.10
35700;DHT22;21818;51.078;12.108;2022-11-15T10:31:48;14.70;76.20
35700;DHT22;21818;51.078;12.108;2022-11-15T10:34:19;14.80;76.20
35700;DHT22;21818;51.078;12.108;2022-11-15T10:36:58;14.80;76.10
35700;DHT22;21818;51.078;12.108;2022-11-15T10:39:25;14.80;76.10
35700;DHT22;21818;51.078;12.108;2022-11-15T10:41:51;14.90;76.20
35700;DHT22;21818;51.078;12.108;2022-11-15T10:46:46;15.00;76.60
35700;DHT22;21818;51.078;12.108;2022-11-15T10:49:16;15.00;76.00
35700;DHT22;21818;51.078;12.108;2022-11-15T10:52:17;15.00;75.90
35700;DHT22;21818;51.078;12.108;2022-11-15T10:57:27;15.10;75.80
35700;DHT22;21818;51.078;12.108;2022-11-15T11:05:35;15.10;75.50
35700;DHT22;21818;51.078;12.108;2022-11-15T11:10:31;15.20;75.50
35700;DHT22;21818;51.078;12.108;2022-11-15T11:13:21;15.20;75.40
35700;DHT22;21818;51.078;12.108;2022-11-15T11:21:13;15.40;75.10
35700;DHT22;21818;51.078;12.108;2022-11-15T11:23:52;15.40;75.00
35700;DHT22;21818;51.078;12.108;2022-11-15T11:26:42;15.40;74.90
35700;DHT22;21818;51.078;12.108;2022-11-15T11:36:56;15.60;74.50
35700;DHT22;21818;51.078;12.108;2022-11-15T11:50:52;15.80;73.90
35700;DHT22;21818;51.078;12.108;2022-11-15T11:53:41;15.90;73.90
35700;DHT22;21818;51.078;12.108;2022-11-15T11:58:48;16.00;73.40
35700;DHT22;21818;51.078;12.108;2022-11-15T12:01:37;16.10;73.40
35700;DHT22;21818;51.078;12.108;2022-11-15T12:04:30;16.20;73.00
35700;DHT22;21818;51.078;12.108;2022-11-15T12:07:04;16.20;72.80
35700;DHT22;21818;51.078;12.108;2022-11-15T12:12:16;16.40;72.50
35700;DHT22;21818;51.078;12.108;2022-11-15T12:17:27;16.60;72.10
35700;DHT22;21818;51.078;12.108;2022-11-15T12:20:04;16.70;72.00
35700;DHT22;21818;51.078;12.108;2022-11-15T12:30:54;17.10;71.00
35700;DHT22;21818;51.078;12.108;2022-11-15T12:33:39;17.20;70.80
35700;DHT22;21818;51.078;12.108;2022-11-15T12:36:10;17.30;70.40
35700;DHT22;21818;51.078;12.108;2022-11-15T12:41:22;17.60;70.00
35700;DHT22;21818;51.078;12.108;2022-11-15T12:43:49;17.60;69.90
35700;DHT22;21818;51.078;12.108;2022-11-15T12:46:22;17.80;69.70
35700;DHT22;21818;51.078;12.108;2022-11-15T12:48:57;17.80;69.50
35700;DHT22;21818;51.078;12.108;2022-11-15T13:02:39;18.20;68.30
35700;DHT22;21818;51.078;12.108;2022-11-15T13:17:55;18.60;67.20
35700;DHT22;21818;51.078;12.108;2022-11-15T13:20:23;18.70;66.70
35700;DHT22;21818;51.078;12.108;2022-11-15T13:23:14;18.70;66.90
35700;DHT22;21818;51.078;12.108;2022-11-15T13:28:37;18.90;69.20
35700;DHT22;21818;51.078;12.108;2022-11-15T13:33:52;19.10;70.10
35700;DHT22;21818;51.078;12.108;2022-11-15T13:36:28;19.20;70.30
35700;DHT22;21818;51.078;12.108;2022-11-15T13:39:23;19.30;70.80
35700;DHT22;21818;51.078;12.108;2022-11-15T13:41:51;19.40;71.20
35700;DHT22;21818;51.078;12.108;2022-11-15T13:44:25;19.50;71.50
35700;DHT22;21818;51.078;12.108;2022-11-15T13:47:06;19.40;71.90
35700;DHT22;21818;51.078;12.108;2022-11-15T13:49:37;19.40;72.50
35700;DHT22;21818;51.078;12.108;2022-11-15T13:52:06;19.40;72.60
35700;DHT22;21818;51.078;12.108;2022-11-15T13:57:14;19.20;72.90
35700;DHT22;21818;51.078;12.108;2022-11-15T13:59:52;19.20;73.00
35700;DHT22;21818;51.078;12.108;2022-11-15T14:02:26;19.10;72.90
35700;DHT22;21818;51.078;12.108;2022-11-15T14:04:58;19.10;73.30
35700;DHT22;21818;51.078;12.108;2022-11-15T14:07:26;19.00;72.90
35700;DHT22;21818;51.078;12.108;2022-11-15T14:09:53;19.10;72.80
35700;DHT22;21818;51.078;12.108;2022-11-15T14:12:29;19.00;72.70
35700;DHT22;21818;51.078;12.108;2022-11-15T14:14:55;19.00;72.50
35700;DHT22;21818;51.078;12.108;2022-11-15T14:17:33;19.10;72.40
35700;DHT22;21818;51.078;12.108;2022-11-15T14:19:59;19.10;72.20
35700;DHT22;21818;51.078;12.108;2022-11-15T14:22:30;19.10;72.00
35700;DHT22;21818;51.078;12.108;2022-11-15T14:27:39;18.90;71.70
35700;DHT22;21818;51.078;12.108;2022-11-15T14:30:05;18.90;71.80
35700;DHT22;21818;51.078;12.108;2022-11-15T14:32:50;18.90;71.80
35700;DHT22;21818;51.078;12.108;2022-11-15T14:35:19;18.90;71.50
35700;DHT22;21818;51.078;12.108;2022-11-15T14:37:46;18.90;71.60
35700;DHT22;21818;51.078;12.108;2022-11-15T14:40:14;18.90;71.50
35700;DHT22;21818;51.078;12.108;2022-11-15T14:42:41;18.90;71.40
35700;DHT22;21818;51.078;12.108;2022-11-15T14:45:18;18.80;71.30
35700;DHT22;21818;51.078;12.108;2022-11-15T14:47:44;18.70;71.30
35700;DHT22;21818;51.078;12.108;2022-11-15T14:50:19;18.60;71.60
35700;DHT22;21818;51.078;12.108;2022-11-15T14:52:46;18.40;71.60
35700;DHT22;21818;51.078;12.108;2022-11-15T14:55:21;18.30;71.80
35700;DHT22;21818;51.078;12.108;2022-11-15T14:57:48;18.20;71.70
35700;DHT22;21818;51.078;12.108;2022-11-15T15:00:14;18.10;72.20
35700;DHT22;21818;51.078;12.108;2022-11-15T15:02:42;18.10;71.80
35700;DHT22;21818;51.078;12.108;2022-11-15T15:05:17;18.00;71.60
35700;DHT22;21818;51.078;12.108;2022-11-15T15:07:43;17.90;71.70
35700;DHT22;21818;51.078;12.108;2022-11-15T15:10:09;17.80;71.50
35700;DHT22;21818;51.078;12.108;2022-11-15T15:12:35;17.80;71.50
35700;DHT22;21818;51.078;12.108;2022-11-15T15:15:01;17.70;71.40
35700;DHT22;21818;51.078;12.108;2022-11-15T15:17:26;17.60;71.50
35700;DHT22;21818;51.078;12.108;2022-11-15T15:19:52;17.50;72.10
35700;DHT22;21818;51.078;12.108;2022-11-15T15:22:19;17.50;71.70
35700;DHT22;21818;51.078;12.108;2022-11-15T15:24:47;17.40;71.80
35700;DHT22;21818;51.078;12.108;2022-11-15T15:27:13;17.30;71.80
35700;DHT22;21818;51.078;12.108;2022-11-15T15:29:39;17.30;71.90
35700;DHT22;21818;51.078;12.108;2022-11-15T15:32:05;17.20;72.10
35700;DHT22;21818;51.078;12.108;2022-11-15T15:34:31;17.20;72.20
35700;DHT22;21818;51.078;12.108;2022-11-15T15:37:23;17.20;72.30
35700;DHT22;21818;51.078;12.108;2022-11-15T15:39:51;17.10;72.30
35700;DHT22;21818;51.078;12.108;2022-11-15T15:42:17;17.10;72.50
35700;DHT22;21818;51.078;12.108;2022-11-15T15:44:42;17.00;72.70
35700;DHT22;21818;51.078;12.108;2022-11-15T15:47:21;16.90;72.70
35700;DHT22;21818;51.078;12.108;2022-11-15T15:49:48;16.80;72.90
35700;DHT22;21818;51.078;12.108;2022-11-15T15:52:14;16.80;73.00
35700;DHT22;21818;51.078;12.108;2022-11-15T15:54:40;16.70;73.00
35700;DHT22;21818;51.078;12.108;2022-11-15T15:57:07;16.60;73.00
35700;DHT22;21818;51.078;12.108;2022-11-15T15:59:33;16.50;73.10
35700;DHT22;21818;51.078;12.108;2022-11-15T16:01:59;16.50;73.10
35700;DHT22;21818;51.078;12.108;2022-11-15T16:04:24;16.40;73.20
35700;DHT22;21818;51.078;12.108;2022-11-15T16:06:51;16.40;73.30
35700;DHT22;21818;51.078;12.108;2022-11-15T16:09:20;16.30;73.40
35700;DHT22;21818;51.078;12.108;2022-11-15T16:12:05;16.20;73.60
35700;DHT22;21818;51.078;12.108;2022-11-15T16:14:31;16.20;73.60
35700;DHT22;21818;51.078;12.108;2022-11-15T16:16:57;16.20;73.60
35700;DHT22;21818;51.078;12.108;2022-11-15T16:19:23;16.10;73.60
35700;DHT22;21818;51.078;12.108;2022-11-15T16:21:49;16.10;74.40
35700;DHT22;21818;51.078;12.108;2022-11-15T16:24:15;16.00;73.90
35700;DHT22;21818;51.078;12.108;2022-11-15T16:26:40;16.00;73.90
35700;DHT22;21818;51.078;12.108;2022-11-15T16:29:07;16.00;74.00
35700;DHT22;21818;51.078;12.108;2022-11-15T16:31:34;15.90;73.90
35700;DHT22;21818;51.078;12.108;2022-11-15T16:34:00;15.90;74.00
35700;DHT22;21818;51.078;12.108;2022-11-15T16:36:26;15.80;74.00
35700;DHT22;21818;51.078;12.108;2022-11-15T16:38:52;15.80;74.00
35700;DHT22;21818;51.078;12.108;2022-11-15T16:41:18;15.80;73.90
35700;DHT22;21818;51.078;12.108;2022-11-15T16:43:47;15.80;73.90
35700;DHT22;21818;51.078;12.108;2022-11-15T16:46:26;15.70;73.90
35700;DHT22;21818;51.078;12.108;2022-11-15T16:48:52;15.70;74.00
35700;DHT22;21818;51.078;12.108;2022-11-15T16:51:18;15.70;74.00
35700;DHT22;21818;51.078;12.108;2022-11-15T16:53:44;15.60;74.10
35700;DHT22;21818;51.078;12.108;2022-11-15T16:56:24;15.60;74.20
35700;DHT22;21818;51.078;12.108;2022-11-15T16:58:52;15.50;74.20
35700;DHT22;21818;51.078;12.108;2022-11-15T17:01:24;15.50;74.30
35700;DHT22;21818;51.078;12.108;2022-11-15T17:03:50;15.50;74.30
35700;DHT22;21818;51.078;12.108;2022-11-15T17:06:17;15.50;74.40
35700;DHT22;21818;51.078;12.108;2022-11-15T17:08:45;15.40;74.30
35700;DHT22;21818;51.078;12.108;2022-11-15T17:11:19;15.40;74.40
35700;DHT22;21818;51.078;12.108;2022-11-15T17:13:46;15.30;74.40
35700;DHT22;21818;51.078;12.108;2022-11-15T17:16:14;15.30;74.50
35700;DHT22;21818;51.078;12.108;2022-11-15T17:18:41;15.30;74.60
35700;DHT22;21818;51.078;12.108;2022-11-15T17:21:13;15.20;74.70
35700;DHT22;21818;51.078;12.108;2022-11-15T17:23:38;15.20;74.80
35700;DHT22;21818;51.078;12.108;2022-11-15T17:26:05;15.20;74.80
35700;DHT22;21818;51.078;12.108;2022-11-15T17:28:34;15.20;74.80
35700;DHT22;21818;51.078;12.108;2022-11-15T17:31:00;15.10;74.90
35700;DHT22;21818;51.078;12.108;2022-11-15T17:33:25;15.10;74.90
35700;DHT22;21818;51.078;12.108;2022-11-15T17:35:56;15.10;75.00
35700;DHT22;21818;51.078;12.108;2022-11-15T17:38:22;15.10;75.10